sensor_id;sensor_type;location;lat;lon;timestamp;pressure;altitude;pressure_sealevel;temperature;humidity
54870;BME280;40756;-37.950;145.008;2024-03-07T00:00:11;102316.88;;;20.56;41.05
54870;BME280;40756;-37.950;145.008;2024-03-07T00:02:41;102310.99;;;20.90;40.51
54870;BME280;40756;-37.950;145.008;2024-03-07T00:05:11;102311.65;;;20.39;40.88
54870;BME280;40756;-37.950;145.008;2024-03-07T00:07:41;102312.18;;;20.64;40.75
54870;BME280;40756;-37.950;145.008;2024-03-07T00:10:11;102319.22;;;20.28;41.59
54870;BME280;40756;-37.950;145.008;2024-03-07T00:12:41;102319.07;;;20.66;40.26
54870;BME280;40756;-37.950;145.008;2024-03-07T00:15:11;102311.65;;;20.60;40.20
54870;BME280;40756;-37.950;145.008;2024-03-07T00:17:41;102311.88;;;21.24;40.44
54870;BME280;40756;-37.950;145.008;2024-03-07T00:20:11;102315.81;;;19.54;41.69
54870;BME280;40756;-37.950;145.008;2024-03-07T00:22:41;102312.21;;;20.25;41.07
54870;BME280;40756;-37.950;145.008;2024-03-07T00:25:11;102311.50;;;19.73;41.61
54870;BME280;40756;-37.950;145.008;2024-03-07T00:27:40;102312.19;;;19.57;42.54
54870;BME280;40756;-37.950;145.008;2024-03-07T00:30:10;102302.83;;;19.89;41.78
54870;BME280;40756;-37.950;145.008;2024-03-07T00:32:40;102300.36;;;20.27;42.15
54870;BME280;40756;-37.950;145.008;2024-03-07T00:35:10;102300.16;;;21.26;41.23
54870;BME280;40756;-37.950;145.008;2024-03-07T00:37:40;102299.01;;;21.01;40.58
54870;BME280;40756;-37.950;145.008;2024-03-07T00:40:10;102295.97;;;21.28;40.75
54870;BME280;40756;-37.950;145.008;2024-03-07T00:42:39;102296.70;;;20.66;41.57
54870;BME280;40756;-37.950;145.008;2024-03-07T00:45:09;102295.52;;;20.40;42.67
54870;BME280;40756;-37.950;145.008;2024-03-07T00:47:38;102293.66;;;21.18;42.28
54870;BME280;40756;-37.950;145.008;2024-03-07T00:50:08;102300.07;;;20.54;42.33
54870;BME280;40756;-37.950;145.008;2024-03-07T00:52:38;102303.44;;;19.57;43.27
54870;BME280;40756;-37.950;145.008;2024-03-07T00:55:08;102298.66;;;20.54;42.68
54870;BME280;40756;-37.950;145.008;2024-03-07T00:57:38;102294.33;;;20.87;42.96
54870;BME280;40756;-37.950;145.008;2024-03-07T01:00:09;102302.39;;;20.52;42.49
54870;BME280;40756;-37.950;145.008;2024-03-07T01:02:39;102294.30;;;21.83;40.35
54870;BME280;40756;-37.950;145.008;2024-03-07T01:05:09;102300.68;;;21.39;40.81
54870;BME280;40756;-37.950;145.008;2024-03-07T01:07:40;102300.51;;;21.07;41.89
54870;BME280;40756;-37.950;145.008;2024-03-07T01:10:10;102297.70;;;20.82;41.63
54870;BME280;40756;-37.950;145.008;2024-03-07T01:12:42;102298.85;;;19.94;43.54
54870;BME280;40756;-37.950;145.008;2024-03-07T01:15:12;102290.35;;;20.50;41.97
54870;BME280;40756;-37.950;145.008;2024-03-07T01:17:41;102292.03;;;20.38;42.60
54870;BME280;40756;-37.950;145.008;2024-03-07T01:20:12;102290.84;;;20.46;41.82
54870;BME280;40756;-37.950;145.008;2024-03-07T01:22:42;102285.27;;;20.33;42.68
54870;BME280;40756;-37.950;145.008;2024-03-07T01:25:15;102291.12;;;19.70;43.63
54870;BME280;40756;-37.950;145.008;2024-03-07T01:27:45;102287.86;;;20.25;42.55
54870;BME280;40756;-37.950;145.008;2024-03-07T01:30:16;102284.54;;;20.73;41.74
54870;BME280;40756;-37.950;145.008;2024-03-07T01:32:48;102284.51;;;20.81;40.93
54870;BME280;40756;-37.950;145.008;2024-03-07T01:35:19;102283.19;;;20.16;41.91
54870;BME280;40756;-37.950;145.008;2024-03-07T01:37:53;102285.17;;;20.09;42.17
54870;BME280;40756;-37.950;145.008;2024-03-07T01:40:23;102280.24;;;20.42;41.16
54870;BME280;40756;-37.950;145.008;2024-03-07T01:42:54;102274.87;;;20.78;40.97
54870;BME280;40756;-37.950;145.008;2024-03-07T01:45:24;102275.28;;;20.35;41.07
54870;BME280;40756;-37.950;145.008;2024-03-07T01:47:54;102275.04;;;20.68;40.47
54870;BME280;40756;-37.950;145.008;2024-03-07T01:50:25;102271.70;;;20.92;39.86
54870;BME280;40756;-37.950;145.008;2024-03-07T01:52:56;102271.66;;;21.37;39.02
54870;BME280;40756;-37.950;145.008;2024-03-07T01:55:29;102271.43;;;20.58;40.82
54870;BME280;40756;-37.950;145.008;2024-03-07T01:58:02;102263.38;;;21.25;39.11
54870;BME280;40756;-37.950;145.008;2024-03-07T02:00:32;102265.19;;;20.67;39.77
54870;BME280;40756;-37.950;145.008;2024-03-07T02:03:03;102261.25;;;21.06;38.49
54870;BME280;40756;-37.950;145.008;2024-03-07T02:05:36;102256.19;;;22.11;37.66
54870;BME280;40756;-37.950;145.008;2024-03-07T02:08:07;102249.74;;;21.69;37.50
54870;BME280;40756;-37.950;145.008;2024-03-07T02:10:38;102246.28;;;22.30;37.05
54870;BME280;40756;-37.950;145.008;2024-03-07T02:13:08;102240.99;;;22.08;38.82
54870;BME280;40756;-37.950;145.008;2024-03-07T02:15:39;102226.85;;;21.17;38.44
54870;BME280;40756;-37.950;145.008;2024-03-07T02:18:10;102226.75;;;21.76;37.89
54870;BME280;40756;-37.950;145.008;2024-03-07T02:20:43;102221.39;;;22.37;36.33
54870;BME280;40756;-37.950;145.008;2024-03-07T02:23:13;102224.17;;;22.56;36.31
54870;BME280;40756;-37.950;145.008;2024-03-07T02:25:45;102226.57;;;22.64;36.40
54870;BME280;40756;-37.950;145.008;2024-03-07T02:28:17;102233.23;;;23.01;36.85
54870;BME280;40756;-37.950;145.008;2024-03-07T02:30:48;102224.87;;;22.98;36.76
54870;BME280;40756;-37.950;145.008;2024-03-07T02:33:20;102225.00;;;22.41;36.61
54870;BME280;40756;-37.950;145.008;2024-03-07T02:35:54;102225.06;;;22.05;36.91
54870;BME280;40756;-37.950;145.008;2024-03-07T02:38:24;102230.08;;;22.62;36.55
54870;BME280;40756;-37.950;145.008;2024-03-07T02:40:55;102217.97;;;23.51;36.30
54870;BME280;40756;-37.950;145.008;2024-03-07T02:43:26;102219.87;;;22.62;36.33
54870;BME280;40756;-37.950;145.008;2024-03-07T02:45:57;102215.36;;;23.53;35.31
54870;BME280;40756;-37.950;145.008;2024-03-07T02:48:34;102210.34;;;23.61;35.20
54870;BME280;40756;-37.950;145.008;2024-03-07T02:51:06;102213.68;;;23.24;35.92
54870;BME280;40756;-37.950;145.008;2024-03-07T02:53:36;102211.10;;;23.99;35.84
54870;BME280;40756;-37.950;145.008;2024-03-07T02:56:09;102206.69;;;22.60;35.80
54870;BME280;40756;-37.950;145.008;2024-03-07T02:58:39;102199.81;;;23.91;34.10
54870;BME280;40756;-37.950;145.008;2024-03-07T03:01:11;102203.21;;;24.73;33.94
54870;BME280;40756;-37.950;145.008;2024-03-07T03:03:41;102200.65;;;25.00;32.82
54870;BME280;40756;-37.950;145.008;2024-03-07T03:06:11;102201.60;;;23.95;33.55
54870;BME280;40756;-37.950;145.008;2024-03-07T03:08:47;102194.80;;;24.99;32.23
54870;BME280;40756;-37.950;145.008;2024-03-07T03:11:17;102190.32;;;23.80;32.87
54870;BME280;40756;-37.950;145.008;2024-03-07T03:13:47;102194.46;;;23.64;33.73
54870;BME280;40756;-37.950;145.008;2024-03-07T03:16:16;102197.69;;;24.04;33.54
54870;BME280;40756;-37.950;145.008;2024-03-07T03:18:47;102192.77;;;24.46;32.43
54870;BME280;40756;-37.950;145.008;2024-03-07T03:21:17;102186.01;;;24.37;32.32
54870;BME280;40756;-37.950;145.008;2024-03-07T03:23:50;102183.32;;;25.24;31.85
54870;BME280;40756;-37.950;145.008;2024-03-07T03:26:21;102183.04;;;23.89;33.90
54870;BME280;40756;-37.950;145.008;2024-03-07T03:28:51;102183.02;;;22.61;34.10
54870;BME280;40756;-37.950;145.008;2024-03-07T03:31:21;102172.81;;;23.46;33.37
54870;BME280;40756;-37.950;145.008;2024-03-07T03:33:50;102167.53;;;23.67;33.84
54870;BME280;40756;-37.950;145.008;2024-03-07T03:36:20;102162.20;;;24.61;32.81
54870;BME280;40756;-37.950;145.008;2024-03-07T03:38:50;102170.93;;;24.19;32.51
54870;BME280;40756;-37.950;145.008;2024-03-07T03:41:20;102163.27;;;25.03;31.22
54870;BME280;40756;-37.950;145.008;2024-03-07T03:43:50;102164.22;;;24.64;31.61
54870;BME280;40756;-37.950;145.008;2024-03-07T03:46:20;102166.41;;;24.45;32.10
54870;BME280;40756;-37.950;145.008;2024-03-07T03:48:49;102163.13;;;23.51;32.31
54870;BME280;40756;-37.950;145.008;2024-03-07T03:51:19;102160.96;;;24.89;32.04
54870;BME280;40756;-37.950;145.008;2024-03-07T03:53:48;102156.35;;;25.35;31.04
54870;BME280;40756;-37.950;145.008;2024-03-07T03:56:17;102160.49;;;23.94;32.34
54870;BME280;40756;-37.950;145.008;2024-03-07T03:58:48;102154.54;;;23.63;33.88
54870;BME280;40756;-37.950;145.008;2024-03-07T04:01:17;102147.04;;;25.16;33.03
54870;BME280;40756;-37.950;145.008;2024-03-07T04:03:46;102144.47;;;25.94;31.54
54870;BME280;40756;-37.950;145.008;2024-03-07T04:06:16;102140.28;;;24.75;32.44
54870;BME280;40756;-37.950;145.008;2024-03-07T04:08:46;102134.91;;;24.97;32.31
54870;BME280;40756;-37.950;145.008;2024-03-07T04:11:15;102128.94;;;24.91;32.67
54870;BME280;40756;-37.950;145.008;2024-03-07T04:13:47;102128.57;;;25.28;32.79
54870;BME280;40756;-37.950;145.008;2024-03-07T04:16:16;102125.47;;;25.63;30.93
54870;BME280;40756;-37.950;145.008;2024-03-07T04:18:45;102117.12;;;25.16;31.56
54870;BME280;40756;-37.950;145.008;2024-03-07T04:21:14;102116.70;;;25.36;31.61
54870;BME280;40756;-37.950;145.008;2024-03-07T04:23:44;102111.37;;;24.10;32.71
54870;BME280;40756;-37.950;145.008;2024-03-07T04:26:13;102109.02;;;25.70;31.60
54870;BME280;40756;-37.950;145.008;2024-03-07T04:28:43;102108.38;;;25.59;31.53
54870;BME280;40756;-37.950;145.008;2024-03-07T04:31:12;102107.13;;;25.25;31.86
54870;BME280;40756;-37.950;145.008;2024-03-07T04:33:41;102107.26;;;25.77;30.24
54870;BME280;40756;-37.950;145.008;2024-03-07T04:36:11;102099.27;;;24.48;31.53
54870;BME280;40756;-37.950;145.008;2024-03-07T04:38:41;102100.42;;;24.80;32.63
54870;BME280;40756;-37.950;145.008;2024-03-07T04:41:11;102098.98;;;24.69;32.23
54870;BME280;40756;-37.950;145.008;2024-03-07T04:43:41;102104.43;;;24.78;31.86
54870;BME280;40756;-37.950;145.008;2024-03-07T04:46:11;102096.34;;;24.91;31.42
54870;BME280;40756;-37.950;145.008;2024-03-07T04:48:40;102092.97;;;25.76;30.01
54870;BME280;40756;-37.950;145.008;2024-03-07T04:51:09;102096.38;;;26.10;29.89
54870;BME280;40756;-37.950;145.008;2024-03-07T04:53:39;102095.32;;;25.15;30.57
54870;BME280;40756;-37.950;145.008;2024-03-07T04:56:08;102088.92;;;25.73;30.84
54870;BME280;40756;-37.950;145.008;2024-03-07T04:58:37;102094.27;;;26.01;29.87
54870;BME280;40756;-37.950;145.008;2024-03-07T05:01:07;102090.10;;;24.60;30.78
54870;BME280;40756;-37.950;145.008;2024-03-07T05:03:36;102088.25;;;25.26;31.29
54870;BME280;40756;-37.950;145.008;2024-03-07T05:06:05;102078.74;;;25.91;30.42
54870;BME280;40756;-37.950;145.008;2024-03-07T05:08:35;102076.44;;;25.86;31.06
54870;BME280;40756;-37.950;145.008;2024-03-07T05:11:05;102084.50;;;25.52;31.99
54870;BME280;40756;-37.950;145.008;2024-03-07T05:13:39;102073.70;;;23.93;32.11
54870;BME280;40756;-37.950;145.008;2024-03-07T05:16:09;102067.13;;;25.02;31.62
54870;BME280;40756;-37.950;145.008;2024-03-07T05:18:38;102072.67;;;23.76;32.91
54870;BME280;40756;-37.950;145.008;2024-03-07T05:21:08;102071.70;;;24.37;33.07
54870;BME280;40756;-37.950;145.008;2024-03-07T05:23:37;102068.23;;;24.97;32.21
54870;BME280;40756;-37.950;145.008;2024-03-07T05:26:07;102075.27;;;24.24;33.11
54870;BME280;40756;-37.950;145.008;2024-03-07T05:28:36;102074.20;;;23.80;33.74
54870;BME280;40756;-37.950;145.008;2024-03-07T05:31:05;102073.52;;;23.95;33.85
54870;BME280;40756;-37.950;145.008;2024-03-07T05:33:35;102073.69;;;24.66;33.19
54870;BME280;40756;-37.950;145.008;2024-03-07T05:36:05;102072.82;;;23.62;34.30
54870;BME280;40756;-37.950;145.008;2024-03-07T05:38:34;102068.83;;;23.46;35.21
54870;BME280;40756;-37.950;145.008;2024-03-07T05:41:04;102069.49;;;23.64;34.61
54870;BME280;40756;-37.950;145.008;2024-03-07T05:43:33;102067.47;;;24.99;33.86
54870;BME280;40756;-37.950;145.008;2024-03-07T05:46:02;102068.79;;;24.75;33.17
54870;BME280;40756;-37.950;145.008;2024-03-07T05:48:32;102067.41;;;23.66;33.89
54870;BME280;40756;-37.950;145.008;2024-03-07T05:51:02;102074.27;;;22.53;35.73
54870;BME280;40756;-37.950;145.008;2024-03-07T05:53:32;102065.97;;;22.62;35.52
54870;BME280;40756;-37.950;145.008;2024-03-07T05:56:01;102064.97;;;23.02;35.17
54870;BME280;40756;-37.950;145.008;2024-03-07T05:58:30;102058.58;;;23.15;35.32
54870;BME280;40756;-37.950;145.008;2024-03-07T06:00:59;102060.91;;;23.84;35.00
54870;BME280;40756;-37.950;145.008;2024-03-07T06:03:29;102060.45;;;23.42;35.11
54870;BME280;40756;-37.950;145.008;2024-03-07T06:05:58;102059.23;;;23.57;35.10
54870;BME280;40756;-37.950;145.008;2024-03-07T06:08:28;102058.26;;;23.85;34.57
54870;BME280;40756;-37.950;145.008;2024-03-07T06:10:57;102055.03;;;23.33;35.24
54870;BME280;40756;-37.950;145.008;2024-03-07T06:13:28;102050.75;;;23.19;36.02
54870;BME280;40756;-37.950;145.008;2024-03-07T06:15:57;102064.75;;;23.41;34.49
54870;BME280;40756;-37.950;145.008;2024-03-07T06:18:27;102066.48;;;23.54;34.30
54870;BME280;40756;-37.950;145.008;2024-03-07T06:20:56;102059.13;;;23.12;34.95
54870;BME280;40756;-37.950;145.008;2024-03-07T06:23:26;102067.65;;;22.23;36.66
54870;BME280;40756;-37.950;145.008;2024-03-07T06:25:56;102065.97;;;23.01;35.91
54870;BME280;40756;-37.950;145.008;2024-03-07T06:28:25;102069.77;;;22.77;36.08
54870;BME280;40756;-37.950;145.008;2024-03-07T06:30:55;102067.70;;;23.74;35.85
54870;BME280;40756;-37.950;145.008;2024-03-07T06:33:24;102067.67;;;23.94;34.83
54870;BME280;40756;-37.950;145.008;2024-03-07T06:35:54;102071.84;;;22.59;36.30
54870;BME280;40756;-37.950;145.008;2024-03-07T06:38:23;102063.44;;;22.97;35.99
54870;BME280;40756;-37.950;145.008;2024-03-07T06:40:52;102059.82;;;23.40;35.89
54870;BME280;40756;-37.950;145.008;2024-03-07T06:43:22;102065.84;;;22.14;36.31
54870;BME280;40756;-37.950;145.008;2024-03-07T06:45:52;102064.52;;;21.69;36.66
54870;BME280;40756;-37.950;145.008;2024-03-07T06:48:21;102065.42;;;22.42;36.49
54870;BME280;40756;-37.950;145.008;2024-03-07T06:50:50;102067.43;;;21.92;37.14
54870;BME280;40756;-37.950;145.008;2024-03-07T06:53:20;102067.87;;;22.74;36.44
54870;BME280;40756;-37.950;145.008;2024-03-07T06:55:49;102069.56;;;22.80;36.05
54870;BME280;40756;-37.950;145.008;2024-03-07T06:58:19;102075.76;;;22.55;37.37
54870;BME280;40756;-37.950;145.008;2024-03-07T07:00:48;102076.19;;;21.94;37.49
54870;BME280;40756;-37.950;145.008;2024-03-07T07:03:18;102076.99;;;20.54;39.97
54870;BME280;40756;-37.950;145.008;2024-03-07T07:05:47;102083.87;;;21.56;39.13
54870;BME280;40756;-37.950;145.008;2024-03-07T07:08:17;102089.32;;;20.93;40.29
54870;BME280;40756;-37.950;145.008;2024-03-07T07:10:46;102087.43;;;20.76;40.88
54870;BME280;40756;-37.950;145.008;2024-03-07T07:13:15;102090.41;;;21.53;39.87
54870;BME280;40756;-37.950;145.008;2024-03-07T07:15:46;102097.12;;;21.64;39.53
54870;BME280;40756;-37.950;145.008;2024-03-07T07:18:15;102092.05;;;21.19;39.36
54870;BME280;40756;-37.950;145.008;2024-03-07T07:20:45;102092.41;;;21.76;38.84
54870;BME280;40756;-37.950;145.008;2024-03-07T07:23:14;102095.11;;;20.21;40.65
54870;BME280;40756;-37.950;145.008;2024-03-07T07:25:43;102090.31;;;20.26;40.75
54870;BME280;40756;-37.950;145.008;2024-03-07T07:28:13;102087.97;;;21.42;38.96
54870;BME280;40756;-37.950;145.008;2024-03-07T07:30:42;102088.95;;;20.90;39.40
54870;BME280;40756;-37.950;145.008;2024-03-07T07:33:12;102093.06;;;21.27;39.88
54870;BME280;40756;-37.950;145.008;2024-03-07T07:35:41;102096.48;;;19.97;41.89
54870;BME280;40756;-37.950;145.008;2024-03-07T07:38:11;102088.30;;;20.21;41.67
54870;BME280;40756;-37.950;145.008;2024-03-07T07:40:40;102086.72;;;21.63;39.71
54870;BME280;40756;-37.950;145.008;2024-03-07T07:43:10;102088.39;;;19.47;42.47
54870;BME280;40756;-37.950;145.008;2024-03-07T07:45:40;102080.72;;;20.14;41.76
54870;BME280;40756;-37.950;145.008;2024-03-07T07:48:09;102084.40;;;19.95;41.99
54870;BME280;40756;-37.950;145.008;2024-03-07T07:50:38;102086.43;;;20.29;42.21
54870;BME280;40756;-37.950;145.008;2024-03-07T07:53:08;102087.65;;;20.09;41.80
54870;BME280;40756;-37.950;145.008;2024-03-07T07:55:37;102088.60;;;19.65;43.25
54870;BME280;40756;-37.950;145.008;2024-03-07T07:58:07;102088.77;;;20.09;42.09
54870;BME280;40756;-37.950;145.008;2024-03-07T08:00:36;102092.20;;;19.29;42.84
54870;BME280;40756;-37.950;145.008;2024-03-07T08:03:06;102092.92;;;19.87;43.16
54870;BME280;40756;-37.950;145.008;2024-03-07T08:05:37;102099.51;;;19.71;43.12
54870;BME280;40756;-37.950;145.008;2024-03-07T08:08:08;102103.59;;;20.38;42.01
54870;BME280;40756;-37.950;145.008;2024-03-07T08:10:38;102109.59;;;19.30;42.99
54870;BME280;40756;-37.950;145.008;2024-03-07T08:13:08;102116.05;;;19.25;43.37
54870;BME280;40756;-37.950;145.008;2024-03-07T08:15:38;102117.43;;;19.75;42.56
54870;BME280;40756;-37.950;145.008;2024-03-07T08:18:07;102124.57;;;20.19;42.22
54870;BME280;40756;-37.950;145.008;2024-03-07T08:20:37;102131.12;;;19.19;43.59
54870;BME280;40756;-37.950;145.008;2024-03-07T08:23:06;102126.86;;;19.48;43.42
54870;BME280;40756;-37.950;145.008;2024-03-07T08:25:36;102127.18;;;19.95;42.72
54870;BME280;40756;-37.950;145.008;2024-03-07T08:28:06;102128.47;;;18.47;44.25
54870;BME280;40756;-37.950;145.008;2024-03-07T08:30:35;102126.08;;;19.32;43.75
54870;BME280;40756;-37.950;145.008;2024-03-07T08:33:05;102124.56;;;18.86;44.08
54870;BME280;40756;-37.950;145.008;2024-03-07T08:35:34;102124.06;;;19.10;43.76
54870;BME280;40756;-37.950;145.008;2024-03-07T08:38:04;102131.61;;;18.35;44.80
54870;BME280;40756;-37.950;145.008;2024-03-07T08:40:34;102130.38;;;18.73;44.89
54870;BME280;40756;-37.950;145.008;2024-03-07T08:43:04;102132.60;;;18.66;45.11
54870;BME280;40756;-37.950;145.008;2024-03-07T08:45:33;102130.26;;;19.34;43.43
54870;BME280;40756;-37.950;145.008;2024-03-07T08:48:04;102129.07;;;19.79;42.26
54870;BME280;40756;-37.950;145.008;2024-03-07T08:50:34;102132.14;;;19.70;42.33
54870;BME280;40756;-37.950;145.008;2024-03-07T08:53:09;102145.57;;;19.37;42.90
54870;BME280;40756;-37.950;145.008;2024-03-07T08:55:39;102153.31;;;18.73;43.72
54870;BME280;40756;-37.950;145.008;2024-03-07T08:58:08;102151.15;;;18.95;43.39
54870;BME280;40756;-37.950;145.008;2024-03-07T09:00:37;102151.13;;;18.47;44.31
54870;BME280;40756;-37.950;145.008;2024-03-07T09:03:07;102154.11;;;17.42;46.33
54870;BME280;40756;-37.950;145.008;2024-03-07T09:05:36;102154.16;;;18.26;45.50
54870;BME280;40756;-37.950;145.008;2024-03-07T09:08:06;102157.90;;;18.81;44.94
54870;BME280;40756;-37.950;145.008;2024-03-07T09:10:35;102156.71;;;18.12;45.16
54870;BME280;40756;-37.950;145.008;2024-03-07T09:13:05;102158.92;;;17.83;46.26
54870;BME280;40756;-37.950;145.008;2024-03-07T09:15:34;102160.99;;;18.86;44.05
54870;BME280;40756;-37.950;145.008;2024-03-07T09:18:04;102168.47;;;18.90;44.10
54870;BME280;40756;-37.950;145.008;2024-03-07T09:20:34;102176.76;;;18.15;45.29
54870;BME280;40756;-37.950;145.008;2024-03-07T09:23:03;102180.51;;;17.78;45.98
54870;BME280;40756;-37.950;145.008;2024-03-07T09:25:32;102177.02;;;18.31;45.29
54870;BME280;40756;-37.950;145.008;2024-03-07T09:28:02;102180.71;;;18.34;45.05
54870;BME280;40756;-37.950;145.008;2024-03-07T09:30:31;102178.69;;;18.09;45.05
54870;BME280;40756;-37.950;145.008;2024-03-07T09:33:01;102183.51;;;17.98;45.24
54870;BME280;40756;-37.950;145.008;2024-03-07T09:35:31;102184.93;;;18.42;44.98
54870;BME280;40756;-37.950;145.008;2024-03-07T09:38:00;102189.97;;;17.55;45.83
54870;BME280;40756;-37.950;145.008;2024-03-07T09:40:29;102197.51;;;17.70;46.09
54870;BME280;40756;-37.950;145.008;2024-03-07T09:43:01;102200.12;;;18.29;45.14
54870;BME280;40756;-37.950;145.008;2024-03-07T09:45:31;102198.52;;;18.21;44.58
54870;BME280;40756;-37.950;145.008;2024-03-07T09:48:02;102207.61;;;18.57;44.45
54870;BME280;40756;-37.950;145.008;2024-03-07T09:50:31;102208.18;;;17.27;46.24
54870;BME280;40756;-37.950;145.008;2024-03-07T09:53:01;102203.24;;;16.51;47.85
54870;BME280;40756;-37.950;145.008;2024-03-07T09:55:32;102206.29;;;17.50;45.98
54870;BME280;40756;-37.950;145.008;2024-03-07T09:58:02;102209.51;;;17.41;45.89
54870;BME280;40756;-37.950;145.008;2024-03-07T10:00:33;102208.72;;;18.00;45.39
54870;BME280;40756;-37.950;145.008;2024-03-07T10:03:07;102214.91;;;18.15;44.69
54870;BME280;40756;-37.950;145.008;2024-03-07T10:05:38;102217.03;;;16.96;47.08
54870;BME280;40756;-37.950;145.008;2024-03-07T10:08:08;102220.06;;;17.45;46.50
54870;BME280;40756;-37.950;145.008;2024-03-07T10:10:37;102213.18;;;16.75;47.56
54870;BME280;40756;-37.950;145.008;2024-03-07T10:13:07;102212.93;;;17.63;46.42
54870;BME280;40756;-37.950;145.008;2024-03-07T10:15:36;102222.22;;;17.29;46.44
54870;BME280;40756;-37.950;145.008;2024-03-07T10:18:08;102223.25;;;17.39;47.33
54870;BME280;40756;-37.950;145.008;2024-03-07T10:20:39;102219.06;;;17.44;47.55
54870;BME280;40756;-37.950;145.008;2024-03-07T10:23:08;102219.49;;;17.47;47.45
54870;BME280;40756;-37.950;145.008;2024-03-07T10:25:38;102223.16;;;17.70;46.69
54870;BME280;40756;-37.950;145.008;2024-03-07T10:28:10;102221.00;;;18.05;46.27
54870;BME280;40756;-37.950;145.008;2024-03-07T10:30:42;102222.39;;;17.52;47.69
54870;BME280;40756;-37.950;145.008;2024-03-07T10:33:12;102224.27;;;17.62;47.65
54870;BME280;40756;-37.950;145.008;2024-03-07T10:35:41;102219.03;;;17.95;46.35
54870;BME280;40756;-37.950;145.008;2024-03-07T10:38:11;102224.82;;;18.35;45.96
54870;BME280;40756;-37.950;145.008;2024-03-07T10:40:40;102229.33;;;18.40;45.95
54870;BME280;40756;-37.950;145.008;2024-03-07T10:43:11;102231.59;;;18.04;46.62
54870;BME280;40756;-37.950;145.008;2024-03-07T10:45:45;102230.47;;;17.83;47.18
54870;BME280;40756;-37.950;145.008;2024-03-07T10:48:18;102230.43;;;17.44;48.13
54870;BME280;40756;-37.950;145.008;2024-03-07T10:50:58;102226.93;;;17.60;47.11
54870;BME280;40756;-37.950;145.008;2024-03-07T10:53:34;102223.43;;;17.94;46.55
54870;BME280;40756;-37.950;145.008;2024-03-07T10:56:18;102227.74;;;18.17;46.04
54870;BME280;40756;-37.950;145.008;2024-03-07T10:58:58;102229.21;;;17.97;46.36
54870;BME280;40756;-37.950;145.008;2024-03-07T11:01:31;102228.30;;;18.09;46.06
54870;BME280;40756;-37.950;145.008;2024-03-07T11:04:02;102224.08;;;17.87;46.70
54870;BME280;40756;-37.950;145.008;2024-03-07T11:06:32;102230.35;;;18.21;46.05
54870;BME280;40756;-37.950;145.008;2024-03-07T11:09:02;102229.48;;;17.79;46.92
54870;BME280;40756;-37.950;145.008;2024-03-07T11:11:32;102235.26;;;17.40;47.68
54870;BME280;40756;-37.950;145.008;2024-03-07T11:14:01;102231.25;;;17.70;47.65
54870;BME280;40756;-37.950;145.008;2024-03-07T11:16:31;102228.50;;;18.07;46.78
54870;BME280;40756;-37.950;145.008;2024-03-07T11:19:34;102232.03;;;18.29;46.36
54870;BME280;40756;-37.950;145.008;2024-03-07T11:22:04;102229.39;;;18.26;46.10
54870;BME280;40756;-37.950;145.008;2024-03-07T11:24:33;102221.90;;;18.45;46.13
54870;BME280;40756;-37.950;145.008;2024-03-07T11:27:05;102216.16;;;18.33;45.81
54870;BME280;40756;-37.950;145.008;2024-03-07T11:29:43;102215.56;;;18.48;45.59
54870;BME280;40756;-37.950;145.008;2024-03-07T11:32:13;102212.90;;;18.08;46.31
54870;BME280;40756;-37.950;145.008;2024-03-07T11:34:44;102205.87;;;18.18;46.65
54870;BME280;40756;-37.950;145.008;2024-03-07T11:37:18;102199.19;;;17.80;47.58
54870;BME280;40756;-37.950;145.008;2024-03-07T11:39:48;102199.89;;;18.53;46.90
54870;BME280;40756;-37.950;145.008;2024-03-07T11:42:26;102194.45;;;18.28;46.30
54870;BME280;40756;-37.950;145.008;2024-03-07T11:44:56;102201.15;;;18.15;47.18
54870;BME280;40756;-37.950;145.008;2024-03-07T11:47:26;102197.25;;;18.40;46.63
54870;BME280;40756;-37.950;145.008;2024-03-07T11:49:56;102193.57;;;18.35;46.90
54870;BME280;40756;-37.950;145.008;2024-03-07T11:52:26;102192.72;;;18.30;46.47
54870;BME280;40756;-37.950;145.008;2024-03-07T11:54:56;102191.33;;;18.43;46.84
54870;BME280;40756;-37.950;145.008;2024-03-07T11:57:25;102194.25;;;18.66;46.40
54870;BME280;40756;-37.950;145.008;2024-03-07T11:59:55;102195.53;;;18.60;47.39
54870;BME280;40756;-37.950;145.008;2024-03-07T12:02:24;102190.03;;;19.05;45.71
54870;BME280;40756;-37.950;145.008;2024-03-07T12:04:54;102192.03;;;18.84;45.34
54870;BME280;40756;-37.950;145.008;2024-03-07T12:07:24;102193.72;;;18.73;45.61
54870;BME280;40756;-37.950;145.008;2024-03-07T12:09:53;102194.46;;;18.70;45.88
54870;BME280;40756;-37.950;145.008;2024-03-07T12:12:23;102191.69;;;18.63;45.97
54870;BME280;40756;-37.950;145.008;2024-03-07T12:14:53;102181.53;;;18.93;46.10
54870;BME280;40756;-37.950;145.008;2024-03-07T12:17:23;102180.41;;;18.55;46.99
54870;BME280;40756;-37.950;145.008;2024-03-07T12:19:54;102180.65;;;18.40;46.97
54870;BME280;40756;-37.950;145.008;2024-03-07T12:22:25;102178.85;;;18.27;47.43
54870;BME280;40756;-37.950;145.008;2024-03-07T12:25:02;102177.99;;;18.14;48.44
54870;BME280;40756;-37.950;145.008;2024-03-07T12:27:32;102170.18;;;18.21;47.94
54870;BME280;40756;-37.950;145.008;2024-03-07T12:30:01;102164.94;;;18.32;48.17
54870;BME280;40756;-37.950;145.008;2024-03-07T12:32:30;102162.44;;;18.14;48.06
54870;BME280;40756;-37.950;145.008;2024-03-07T12:35:00;102163.51;;;18.08;48.40